Time;durP1;ratioP1;P1;durP2;ratioP2;P2;SDS_P1;SDS_P2;PMS_P1;PMS_P2;Temp;Humidity;BMP_temperature;BMP_pressure;BME280_temperature;BME280_humidity;BME280_pressure;Samples;Min_cycle;Max_cycle;Signal;HPM_P1;HPM_P2
2022/06/26 00:00:54;;;;;;;9.27;8.18;;;;;;;24.70;46.10;99855.50;5044585;28;20032;-69
2022/06/26 00:03:20;;;;;;;14.18;7.97;;;;;;;24.73;46.10;99855.06;5053580;28;20563;-69
2022/06/26 00:05:45;;;;;;;13.88;8.20;;;;;;;24.73;45.88;99857.75;5072083;28;20199;-69
2022/06/26 00:08:11;;;;;;;12.88;8.13;;;;;;;24.76;45.77;99854.66;5073016;28;20037;-69
2022/06/26 00:10:37;;;;;;;12.77;7.65;;;;;;;24.74;46.20;99858.59;5065912;28;20032;-69
2022/06/26 00:13:02;;;;;;;9.95;7.45;;;;;;;24.75;45.95;99865.69;5065216;28;20127;-68
2022/06/26 00:15:28;;;;;;;9.02;7.22;;;;;;;24.71;46.22;99857.13;5072574;28;20032;-69
2022/06/26 00:17:53;;;;;;;13.80;8.63;;;;;;;24.68;46.25;99862.94;5076175;28;20075;-68
2022/06/26 00:20:21;;;;;;;11.10;8.23;;;;;;;24.70;46.09;99860.06;5067729;28;20072;-69
2022/06/26 00:22:47;;;;;;;9.25;7.10;;;;;;;24.67;46.09;99855.88;5055555;28;20021;-69
2022/06/26 00:25:13;;;;;;;9.27;6.97;;;;;;;24.64;46.39;99856.25;5056408;28;20432;-69
2022/06/26 00:27:38;;;;;;;13.60;8.43;;;;;;;24.57;46.48;99866.22;5055959;28;20029;-69
2022/06/26 00:30:04;;;;;;;12.57;7.25;;;;;;;24.60;46.49;99863.13;5056413;28;20029;-70
2022/06/26 00:32:30;;;;;;;19.65;7.05;;;;;;;24.64;46.14;99870.63;5063290;28;20054;-69
2022/06/26 00:34:55;;;;;;;11.52;7.10;;;;;;;24.68;46.35;99871.06;5076055;28;20458;-69
2022/06/26 00:37:21;;;;;;;13.20;8.10;;;;;;;24.64;46.15;99870.63;5075841;28;20036;-69
2022/06/26 00:39:46;;;;;;;11.25;6.40;;;;;;;24.65;46.12;99864.16;5075612;28;20039;-69
2022/06/26 00:42:12;;;;;;;8.60;7.68;;;;;;;24.65;46.12;99869.56;5069377;28;20044;-69
2022/06/26 00:44:37;;;;;;;11.40;7.63;;;;;;;24.64;46.51;99867.91;5055761;28;20028;-69
2022/06/26 00:47:03;;;;;;;8.02;6.68;;;;;;;24.61;46.41;99876.47;5055982;28;20033;-69
2022/06/26 00:49:28;;;;;;;11.55;7.80;;;;;;;24.61;46.24;99881.03;5056316;28;20182;-69
2022/06/26 00:51:55;;;;;;;12.43;7.75;;;;;;;24.59;46.59;99878.53;5056621;28;20068;-69
2022/06/26 00:54:23;;;;;;;11.68;7.57;;;;;;;24.57;46.69;99880.59;5075226;28;20028;-69
2022/06/26 00:56:49;;;;;;;15.02;7.88;;;;;;;24.57;46.49;99882.47;5074534;28;20052;-69
2022/06/26 00:59:16;;;;;;;10.57;6.97;;;;;;;24.56;46.61;99883.53;5074562;28;20086;-69
2022/06/26 01:01:41;;;;;;;8.00;7.20;;;;;;;24.56;46.46;99889.75;5060699;28;20032;-69
2022/06/26 01:04:07;;;;;;;10.80;7.78;;;;;;;24.49;46.78;99887.03;5075734;28;20380;-69
2022/06/26 01:06:34;;;;;;;10.93;7.50;;;;;;;24.42;46.90;99888.06;5074142;28;20039;-69
2022/06/26 01:09:00;;;;;;;12.18;7.32;;;;;;;24.38;47.12;99896.56;5071441;28;20450;-69
2022/06/26 01:11:26;;;;;;;13.88;8.20;;;;;;;24.42;47.33;99896.16;5069580;28;20036;-69
2022/06/26 01:13:54;;;;;;;10.90;7.30;;;;;;;24.38;47.04;99893.03;5075451;28;20037;-69
2022/06/26 01:16:21;;;;;;;15.75;8.48;;;;;;;24.39;46.95;99892.00;5074565;28;20032;-69
2022/06/26 01:18:50;;;;;;;10.35;7.50;;;;;;;24.40;47.14;99887.41;5055416;28;20517;-69
2022/06/26 01:21:17;;;;;;;10.52;7.50;;;;;;;24.48;47.13;99889.94;5071407;28;20392;-69
2022/06/26 01:23:43;;;;;;;12.10;7.82;;;;;;;24.49;46.86;99897.00;5074854;28;20064;-69
2022/06/26 01:26:09;;;;;;;12.45;8.02;;;;;;;24.51;46.78;99897.63;5074989;28;20506;-68
2022/06/26 01:28:34;;;;;;;13.30;8.15;;;;;;;24.53;47.20;99898.28;5073679;28;20127;-69
2022/06/26 01:31:00;;;;;;;13.13;7.70;;;;;;;24.51;46.83;99903.03;5074695;28;20024;-69
2022/06/26 01:33:25;;;;;;;10.27;8.32;;;;;;;24.48;47.31;99900.78;5057409;28;20037;-70
2022/06/26 01:35:51;;;;;;;15.93;8.38;;;;;;;24.43;47.34;99901.34;5061978;28;20056;-70
2022/06/26 01:38:22;;;;;;;10.65;7.95;;;;;;;24.44;47.02;99900.31;5074553;28;20078;-70
2022/06/26 01:40:51;;;;;;;9.43;6.93;;;;;;;24.45;46.99;99901.19;5074769;28;20127;-70
2022/06/26 01:43:18;;;;;;;13.05;7.13;;;;;;;24.44;47.27;99904.91;5074648;28;20514;-70
2022/06/26 01:45:47;;;;;;;9.68;7.22;;;;;;;24.39;47.30;99897.41;5064429;28;20548;-70
2022/06/26 01:48:13;;;;;;;11.60;7.72;;;;;;;24.34;47.44;99906.13;5065110;28;20029;-70
2022/06/26 01:50:39;;;;;;;11.63;7.85;;;;;;;24.27;47.88;99894.44;5074572;28;20028;-70
2022/06/26 01:53:05;;;;;;;8.70;7.10;;;;;;;24.24;48.15;99908.38;5074099;28;20158;-70
2022/06/26 01:55:31;;;;;;;9.15;7.53;;;;;;;24.23;47.71;99904.00;5074496;28;20484;-70
2022/06/26 01:58:01;;;;;;;11.05;7.72;;;;;;;24.19;48.11;99908.97;5069254;28;20043;-70
2022/06/26 02:00:30;;;;;;;13.73;7.85;;;;;;;24.18;48.36;99907.31;5073535;28;20032;-70
2022/06/26 02:02:55;;;;;;;9.88;7.10;;;;;;;24.18;48.30;99901.09;5061678;28;20036;-70
2022/06/26 02:05:22;;;;;;;14.38;8.85;;;;;;;24.18;48.30;99911.91;5060912;28;20570;-70
2022/06/26 02:07:48;;;;;;;9.57;7.30;;;;;;;24.15;48.18;99906.88;5036355;28;20381;-70
2022/06/26 02:15:41;;;;;;;12.55;6.75;;;;;;;24.15;48.38;99906.88;5074636;28;20060;-70
2022/06/26 02:18:07;;;;;;;8.68;7.13;;;;;;;24.14;48.47;99916.03;5061466;28;20040;-70
2022/06/26 02:20:32;;;;;;;10.13;7.10;;;;;;;24.12;49.03;99916.22;5053844;28;20044;-70
2022/06/26 02:22:58;;;;;;;11.85;7.95;;;;;;;24.12;48.79;99921.63;5054015;28;20036;-70
2022/06/26 02:25:24;;;;;;;15.10;7.90;;;;;;;24.17;48.89;99931.84;5053765;28;20040;-70
2022/06/26 02:27:49;;;;;;;10.57;7.82;;;;;;;24.23;48.54;99925.63;5063356;28;20051;-70
2022/06/26 02:30:15;;;;;;;15.60;8.43;;;;;;;24.51;48.32;99922.84;5053769;28;20033;-69
2022/06/26 02:32:41;;;;;;;11.60;7.10;;;;;;;24.77;48.50;99932.09;5053864;28;20064;-70
2022/06/26 02:35:07;;;;;;;9.43;7.25;;;;;;;25.02;48.10;99927.97;5053747;28;20064;-70
2022/06/26 02:37:33;;;;;;;9.70;6.78;;;;;;;25.20;47.50;99933.63;5053371;28;20415;-70
2022/06/26 02:39:58;;;;;;;12.32;6.70;;;;;;;25.30;47.41;99933.16;5053445;28;20028;-70
2022/06/26 02:42:24;;;;;;;10.98;7.38;;;;;;;25.31;47.54;99942.16;5055224;28;20571;-69
2022/06/26 02:44:49;;;;;;;13.02;7.45;;;;;;;25.24;47.85;99942.16;5053430;28;20590;-70
2022/06/26 02:47:15;;;;;;;10.65;6.25;;;;;;;25.20;47.97;99952.56;5053536;28;20083;-70
2022/06/26 02:49:40;;;;;;;18.60;8.00;;;;;;;25.14;48.32;99950.66;5063282;28;20028;-69
2022/06/26 02:52:06;;;;;;;11.35;6.97;;;;;;;25.10;48.14;99949.41;5071140;28;20025;-69
2022/06/26 02:54:31;;;;;;;8.32;6.75;;;;;;;25.08;48.35;99946.91;5053617;28;20552;-69
2022/06/26 02:56:57;;;;;;;13.70;7.45;;;;;;;25.04;48.46;99945.66;5055132;28;20087;-69
2022/06/26 02:59:23;;;;;;;15.73;7.10;;;;;;;25.01;48.97;99950.66;5053164;28;20044;-70
2022/06/26 03:01:48;;;;;;;13.27;8.60;;;;;;;25.02;48.77;99953.16;5053207;28;20041;-69
2022/06/26 03:04:14;;;;;;;12.13;6.93;;;;;;;25.05;49.02;99957.34;5053047;28;20033;-69
2022/06/26 03:06:39;;;;;;;15.75;6.78;;;;;;;25.09;49.13;99955.88;5054718;28;20028;-69
2022/06/26 03:09:05;;;;;;;9.30;6.38;;;;;;;25.10;48.62;99949.41;5053112;28;20404;-69
2022/06/26 03:11:30;;;;;;;10.68;7.43;;;;;;;25.13;48.97;99957.13;5061540;28;20036;-70
2022/06/26 03:13:56;;;;;;;10.73;6.97;;;;;;;25.19;48.76;99956.31;5073238;28;20036;-69
2022/06/26 03:16:22;;;;;;;9.73;6.00;;;;;;;25.38;47.75;99964.63;5072586;28;20028;-69
2022/06/26 03:18:47;;;;;;;12.43;6.20;;;;;;;25.69;46.78;99966.75;5052864;28;20036;-70
2022/06/26 03:21:13;;;;;;;8.25;5.68;;;;;;;26.07;45.65;99967.94;5052706;28;20075;-69
2022/06/26 03:26:22;;;;;;;10.93;5.93;;;;;;;26.80;43.56;99972.28;5072804;28;20042;-69
2022/06/26 03:28:48;;;;;;;9.38;6.20;;;;;;;27.08;42.89;99968.34;5035110;28;20461;-68
2022/06/26 03:31:13;;;;;;;8.23;6.15;;;;;;;27.37;42.25;99973.34;5052909;28;20032;-68
2022/06/26 03:33:39;;;;;;;10.63;5.93;;;;;;;27.60;41.96;99980.13;5052899;28;20499;-69
2022/06/26 03:36:08;;;;;;;8.43;5.95;;;;;;;27.75;41.31;99975.16;5067609;28;20113;-69
2022/06/26 03:38:34;;;;;;;7.65;5.47;;;;;;;27.82;41.51;99980.53;5066532;28;20067;-68
2022/06/26 03:41:00;;;;;;;9.40;5.85;;;;;;;27.82;41.49;99977.81;5052723;28;20116;-69
2022/06/26 03:43:25;;;;;;;7.07;5.55;;;;;;;27.80;41.11;99977.19;5052511;28;20501;-69
2022/06/26 03:45:51;;;;;;;7.90;5.40;;;;;;;27.79;41.47;99978.25;5052788;28;20043;-69
2022/06/26 03:48:17;;;;;;;9.00;5.32;;;;;;;27.77;41.01;99974.94;5052428;28;20033;-67
2022/06/26 03:50:43;;;;;;;8.35;6.10;;;;;;;27.72;40.95;99970.16;5054179;28;20483;-68
2022/06/26 03:53:08;;;;;;;7.07;5.72;;;;;;;27.68;41.05;99977.94;5058511;28;20044;-68
2022/06/26 03:55:34;;;;;;;7.57;5.18;;;;;;;27.68;41.10;99982.53;5053018;28;20133;-69
2022/06/26 03:58:01;;;;;;;9.95;5.88;;;;;;;27.63;41.38;99980.50;5052468;28;20029;-69
2022/06/26 04:00:26;;;;;;;11.23;6.25;;;;;;;27.58;41.55;99974.88;5052542;28;20099;-69
2022/06/26 04:02:52;;;;;;;9.65;5.82;;;;;;;27.48;41.48;99967.25;5059471;28;20491;-69
2022/06/26 04:05:17;;;;;;;8.15;5.57;;;;;;;27.39;41.88;99976.69;5052669;28;20472;-69
2022/06/26 04:07:43;;;;;;;7.68;5.28;;;;;;;27.34;41.69;99979.25;5052293;28;20506;-69
2022/06/26 04:10:08;;;;;;;9.23;5.47;;;;;;;27.32;41.82;99973.22;5054234;28;20028;-69
2022/06/26 04:12:34;;;;;;;10.40;5.63;;;;;;;27.30;41.87;99975.31;5068374;28;20029;-69
2022/06/26 04:14:59;;;;;;;9.73;6.03;;;;;;;27.26;41.88;99974.91;5052157;28;20057;-69
2022/06/26 04:17:24;;;;;;;10.00;6.10;;;;;;;27.23;42.22;99975.34;5060779;28;20061;-69
2022/06/26 04:19:50;;;;;;;12.05;6.95;;;;;;;27.18;42.05;99980.59;5072370;28;20036;-70
2022/06/26 04:22:16;;;;;;;11.40;6.45;;;;;;;27.11;42.07;99981.50;5072332;28;20036;-70
2022/06/26 04:24:41;;;;;;;13.82;6.28;;;;;;;27.11;42.00;99978.78;5072176;28;20078;-69
2022/06/26 04:27:07;;;;;;;22.85;6.72;;;;;;;27.15;42.15;99981.03;5066862;28;20039;-69
2022/06/26 04:29:32;;;;;;;13.02;6.18;;;;;;;27.14;42.15;99982.94;5055315;28;20055;-69
2022/06/26 04:31:58;;;;;;;11.68;5.95;;;;;;;27.13;42.42;99975.84;5066422;28;20476;-69
2022/06/26 04:34:23;;;;;;;13.77;6.55;;;;;;;27.15;42.13;99981.03;5052030;28;20124;-69
2022/06/26 04:36:49;;;;;;;9.07;6.20;;;;;;;27.28;42.01;99980.94;5051756;28;20520;-69
2022/06/26 04:39:14;;;;;;;10.63;5.72;;;;;;;27.58;41.62;99983.03;5068427;28;20040;-69
2022/06/26 04:41:39;;;;;;;11.85;5.78;;;;;;;27.98;40.65;99993.56;5071958;28;20123;-69
2022/06/26 04:44:08;;;;;;;7.75;5.53;;;;;;;28.37;40.00;99995.25;5072340;28;20033;-69
2022/06/26 04:46:35;;;;;;;8.60;5.75;;;;;;;28.67;39.71;99994.47;5071831;28;20115;-69
2022/06/26 04:49:00;;;;;;;11.63;5.70;;;;;;;28.90;39.48;99997.28;5057122;28;20045;-69
2022/06/26 04:51:26;;;;;;;17.95;6.22;;;;;;;29.12;38.68;99987.81;5063448;28;20032;-70
2022/06/26 04:53:52;;;;;;;8.75;5.63;;;;;;;29.29;38.33;99990.69;5072134;28;20040;-69
2022/06/26 04:56:17;;;;;;;9.32;5.57;;;;;;;29.47;37.88;100000.69;5072011;28;20035;-69
2022/06/26 04:58:43;;;;;;;8.35;4.97;;;;;;;29.61;37.73;100001.31;5070072;28;20040;-69
2022/06/26 05:01:09;;;;;;;7.53;4.93;;;;;;;29.74;37.69;99992.03;5071917;28;20032;-70
2022/06/26 05:03:34;;;;;;;11.30;4.82;;;;;;;29.84;37.25;99997.75;5075247;28;20028;-69
2022/06/26 05:06:00;;;;;;;7.78;4.85;;;;;;;29.95;37.33;99996.09;5075312;28;20028;-69
2022/06/26 05:08:26;;;;;;;8.20;4.50;;;;;;;30.05;36.92;99999.06;5059747;28;20060;-69
2022/06/26 05:10:51;;;;;;;7.97;5.15;;;;;;;30.14;36.55;100003.09;5063045;28;20028;-69
2022/06/26 05:13:17;;;;;;;7.22;4.70;;;;;;;30.25;36.27;99997.84;5075795;28;20426;-69
2022/06/26 05:15:43;;;;;;;6.85;4.55;;;;;;;30.34;36.22;100001.03;5075227;28;20044;-69
2022/06/26 05:18:09;;;;;;;7.55;3.67;;;;;;;30.41;35.81;99993.56;5074586;28;20398;-68
2022/06/26 05:20:34;;;;;;;8.95;3.75;;;;;;;30.45;35.96;99998.28;5073665;28;20047;-69
2022/06/26 05:23:00;;;;;;;10.70;3.30;;;;;;;30.51;35.70;100001.13;5061091;28;20044;-69
2022/06/26 05:25:25;;;;;;;9.68;4.13;;;;;;;30.57;35.29;100013.81;5055169;28;20067;-69
2022/06/26 05:27:51;;;;;;;8.05;3.30;;;;;;;30.58;35.26;100008.13;5054857;28;20463;-71
2022/06/26 05:30:16;;;;;;;7.07;3.42;;;;;;;30.67;35.15;100005.00;5055185;28;20076;-69
2022/06/26 05:32:42;;;;;;;7.07;3.58;;;;;;;30.68;35.12;99998.47;5055722;28;20033;-69
2022/06/26 05:35:08;;;;;;;6.75;3.20;;;;;;;30.68;35.01;100012.94;5055008;28;20053;-69
2022/06/26 05:37:33;;;;;;;5.97;2.92;;;;;;;30.67;35.00;100008.56;5054937;28;20036;-70
2022/06/26 05:39:59;;;;;;;4.57;2.65;;;;;;;30.64;34.78;100006.34;5054749;28;20044;-70
2022/06/26 05:42:24;;;;;;;4.60;2.83;;;;;;;30.64;34.87;100008.22;5060556;28;20127;-70
2022/06/26 05:44:50;;;;;;;4.13;2.63;;;;;;;30.60;34.39;100018.81;5074984;28;20369;-70
2022/06/26 05:47:15;;;;;;;3.28;2.40;;;;;;;30.57;34.58;100006.47;5072675;28;20127;-69
2022/06/26 05:49:40;;;;;;;3.45;2.20;;;;;;;30.53;34.48;100016.19;5062162;28;20087;-70
2022/06/26 05:52:06;;;;;;;4.82;2.25;;;;;;;30.49;34.50;100009.53;5074385;28;20063;-69
2022/06/26 05:54:32;;;;;;;6.68;2.53;;;;;;;30.47;34.42;100005.41;5074480;28;20102;-69
2022/06/26 05:56:58;;;;;;;6.43;2.40;;;;;;;30.38;34.76;100005.75;5074527;28;20036;-70
2022/06/26 05:59:23;;;;;;;3.45;2.80;;;;;;;30.31;34.97;100010.53;5056499;28;20043;-70
2022/06/26 06:01:49;;;;;;;4.10;2.58;;;;;;;30.31;34.93;100013.25;5074533;28;20040;-69
2022/06/26 06:04:14;;;;;;;6.93;2.28;;;;;;;30.28;35.06;100005.56;5074253;28;20155;-69
2022/06/26 06:06:40;;;;;;;4.43;2.33;;;;;;;30.24;34.80;100012.56;5074396;28;20380;-69
2022/06/26 06:09:05;;;;;;;4.40;2.00;;;;;;;30.17;35.22;100011.88;5071103;28;20040;-69
2022/06/26 06:11:31;;;;;;;4.82;2.20;;;;;;;30.11;35.31;100008.19;5074318;28;20125;-69
2022/06/26 06:13:57;;;;;;;3.85;2.38;;;;;;;30.06;35.28;100005.34;5073498;28;20048;-69
2022/06/26 06:16:22;;;;;;;3.08;1.98;;;;;;;29.98;35.14;99998.34;5074096;28;20111;-69
2022/06/26 06:18:48;;;;;;;3.45;2.08;;;;;;;29.91;35.65;99994.91;5054503;28;20488;-69
2022/06/26 06:21:13;;;;;;;4.95;2.30;;;;;;;29.84;35.85;100001.28;5054144;28;20392;-69
2022/06/26 06:23:39;;;;;;;3.22;2.33;;;;;;;29.79;35.84;99998.44;5054350;28;20083;-69
2022/06/26 06:26:05;;;;;;;2.42;1.70;;;;;;;29.73;35.27;100004.00;5053666;28;20373;-69
2022/06/26 06:28:31;;;;;;;3.63;2.17;;;;;;;29.62;35.22;100000.25;5054836;28;20035;-68
2022/06/26 06:30:56;;;;;;;5.50;2.13;;;;;;;29.42;35.66;99997.81;5053716;28;20037;-69
2022/06/26 06:33:21;;;;;;;3.13;2.03;;;;;;;29.23;35.72;99997.88;5053642;28;20036;-68
2022/06/26 06:35:48;;;;;;;4.05;2.10;;;;;;;29.08;36.24;100006.47;5053665;28;20483;-69
2022/06/26 06:38:14;;;;;;;2.33;1.80;;;;;;;28.93;36.56;100005.00;5063502;28;20516;-68
2022/06/26 06:40:40;;;;;;;4.30;1.58;;;;;;;28.83;36.54;100007.47;5060215;28;20032;-68
2022/06/26 06:43:10;;;;;;;8.07;2.30;;;;;;;28.75;37.11;100018.66;5054548;28;20033;-69
2022/06/26 06:45:35;;;;;;;2.78;1.85;;;;;;;28.65;37.13;100012.91;5069733;28;20044;-69
2022/06/26 06:48:01;;;;;;;4.20;1.95;;;;;;;28.57;37.06;100017.63;5073517;28;20063;-69
2022/06/26 06:50:26;;;;;;;3.70;1.83;;;;;;;28.53;36.88;100013.69;5073438;28;20024;-69
2022/06/26 06:52:52;;;;;;;2.63;1.70;;;;;;;28.50;37.24;100016.84;5072646;28;20044;-69
2022/06/26 06:55:17;;;;;;;2.70;1.92;;;;;;;28.46;37.23;100010.19;5073517;28;20020;-69
2022/06/26 06:57:43;;;;;;;4.00;1.80;;;;;;;28.44;37.41;100013.16;5060363;28;20040;-69
2022/06/26 07:00:09;;;;;;;3.67;1.85;;;;;;;28.43;37.11;100016.13;5053708;28;20033;-70
2022/06/26 07:02:37;;;;;;;2.90;1.80;;;;;;;28.38;37.58;100013.25;5053352;28;20051;-69
2022/06/26 07:05:04;;;;;;;3.30;1.70;;;;;;;28.33;37.56;100014.75;5053464;28;20040;-69
2022/06/26 07:07:29;;;;;;;11.30;1.92;;;;;;;28.31;37.59;100013.31;5053850;28;20024;-70
2022/06/26 07:09:55;;;;;;;7.53;2.25;;;;;;;28.27;37.60;100017.53;5058649;28;20029;-70
2022/06/26 07:12:20;;;;;;;3.50;1.95;;;;;;;28.25;37.82;100025.94;5053151;28;20119;-70
2022/06/26 07:14:45;;;;;;;5.28;2.03;;;;;;;28.23;37.71;100021.78;5053208;28;20037;-70
2022/06/26 07:17:11;;;;;;;3.45;1.70;;;;;;;28.21;37.44;100015.75;5053104;28;20482;-70
2022/06/26 07:19:36;;;;;;;3.42;2.10;;;;;;;28.18;37.48;100019.72;5053378;28;20049;-69
2022/06/26 07:22:02;;;;;;;3.33;2.00;;;;;;;28.16;37.71;100027.31;5056540;28;20040;-70
2022/06/26 07:24:28;;;;;;;2.40;2.00;;;;;;;28.14;37.88;100013.09;5058063;28;20417;-70
2022/06/26 07:26:53;;;;;;;2.33;1.90;;;;;;;28.12;37.92;100018.75;5051840;28;20495;-70
2022/06/26 07:29:18;;;;;;;4.72;2.03;;;;;;;28.12;37.59;100017.91;5053000;28;20476;-69
2022/06/26 07:31:44;;;;;;;3.20;2.17;;;;;;;28.10;37.88;100015.41;5053681;28;20040;-70
2022/06/26 07:34:12;;;;;;;2.67;2.05;;;;;;;28.10;37.89;100020.84;5063915;28;20380;-70
2022/06/26 07:36:42;;;;;;;4.13;2.28;;;;;;;28.09;37.72;100023.78;5066696;28;20052;-70
2022/06/26 07:39:09;;;;;;;3.37;1.83;;;;;;;28.06;38.08;100027.78;5052930;28;20032;-70
2022/06/26 07:41:35;;;;;;;3.83;2.13;;;;;;;28.05;37.68;100023.41;5052418;28;20115;-69
2022/06/26 07:44:00;;;;;;;3.05;2.00;;;;;;;28.05;37.68;100025.28;5052818;28;20068;-70
2022/06/26 07:46:26;;;;;;;3.65;2.28;;;;;;;28.02;37.85;100021.94;5052392;28;20527;-69
2022/06/26 07:48:52;;;;;;;5.15;2.78;;;;;;;28.02;38.12;100026.56;5052711;28;20047;-69
2022/06/26 07:51:18;;;;;;;5.22;2.78;;;;;;;28.01;37.81;100025.72;5052365;28;20017;-70
2022/06/26 07:53:45;;;;;;;4.25;2.53;;;;;;;28.00;37.58;100021.38;5052605;28;20037;-69
2022/06/26 07:56:11;;;;;;;6.70;2.30;;;;;;;28.00;37.57;100020.50;5052658;28;20498;-70
2022/06/26 07:58:37;;;;;;;3.03;2.10;;;;;;;28.01;37.74;100024.91;5052666;28;20028;-70
2022/06/26 08:01:02;;;;;;;2.67;2.08;;;;;;;28.00;37.65;100026.81;5067112;28;20399;-69
2022/06/26 08:03:28;;;;;;;4.35;2.38;;;;;;;27.99;37.59;100019.69;5067662;28;20032;-70
2022/06/26 08:05:54;;;;;;;5.55;2.08;;;;;;;28.00;37.89;100025.94;5072583;28;20056;-70
2022/06/26 08:08:19;;;;;;;2.83;2.20;;;;;;;27.99;37.68;100024.28;5072238;28;20111;-70
2022/06/26 08:10:45;;;;;;;1.98;1.60;;;;;;;27.97;37.66;100018.22;5072181;28;20021;-70
2022/06/26 08:13:10;;;;;;;5.90;2.22;;;;;;;27.96;37.79;100019.28;5055798;28;20041;-69
2022/06/26 08:15:36;;;;;;;3.50;2.30;;;;;;;27.97;37.96;100021.81;5052241;28;20162;-70
2022/06/26 08:18:02;;;;;;;3.33;2.40;;;;;;;27.99;37.42;100025.13;5051893;28;20036;-69
2022/06/26 08:20:28;;;;;;;4.03;2.30;;;;;;;27.96;37.59;100017.41;5052041;28;20035;-69
2022/06/26 08:22:54;;;;;;;4.15;2.35;;;;;;;27.95;37.64;100013.03;5052397;28;20120;-68
2022/06/26 08:25:19;;;;;;;5.55;2.58;;;;;;;27.95;37.82;100012.19;5072506;28;20040;-69
2022/06/26 08:27:45;;;;;;;3.72;2.35;;;;;;;27.93;37.94;100004.25;5062137;28;20037;-69
2022/06/26 08:30:11;;;;;;;4.63;2.60;;;;;;;27.94;37.88;100010.56;5052360;28;20028;-69
2022/06/26 08:32:38;;;;;;;3.80;2.10;;;;;;;27.93;37.96;100006.16;5052548;28;20033;-69
2022/06/26 08:35:08;;;;;;;3.47;2.10;;;;;;;27.94;38.32;100002.38;5055445;28;20060;-69
2022/06/26 08:37:33;;;;;;;3.67;2.70;;;;;;;27.94;38.38;99996.94;5064657;28;20047;-69
2022/06/26 08:39:59;;;;;;;3.30;2.50;;;;;;;27.91;38.21;100003.66;5056124;28;20032;-69
2022/06/26 08:42:26;;;;;;;4.32;2.15;;;;;;;27.95;38.48;100006.75;5055752;28;20404;-69
2022/06/26 08:44:56;;;;;;;4.47;3.15;;;;;;;27.95;37.91;100001.31;5056130;28;20040;-69
2022/06/26 08:47:24;;;;;;;3.78;2.20;;;;;;;27.94;38.03;100000.50;5060637;28;20093;-69
2022/06/26 08:49:51;;;;;;;5.05;2.88;;;;;;;27.95;38.58;100009.47;5075310;28;20052;-69
2022/06/26 08:52:19;;;;;;;5.35;2.53;;;;;;;27.92;38.46;100002.59;5075036;28;20064;-69
2022/06/26 08:54:45;;;;;;;4.45;2.58;;;;;;;27.92;38.57;100004.50;5075718;28;20403;-69
2022/06/26 08:57:13;;;;;;;6.72;2.42;;;;;;;27.87;38.27;99994.28;5074610;28;20488;-69
2022/06/26 08:59:38;;;;;;;6.22;2.63;;;;;;;27.90;38.13;99993.81;5055666;28;20115;-69
2022/06/26 09:02:04;;;;;;;3.30;3.00;;;;;;;27.89;38.55;100000.31;5068565;28;20560;-68
2022/06/26 09:04:30;;;;;;;3.08;2.45;;;;;;;27.89;37.79;100003.03;5055382;28;20060;-68
2022/06/26 09:06:56;;;;;;;12.52;3.50;;;;;;;27.94;37.83;100005.13;5055445;28;20116;-68
2022/06/26 09:09:24;;;;;;;6.50;3.05;;;;;;;28.02;37.75;100008.34;5054628;28;20496;-69
2022/06/26 09:11:52;;;;;;;4.07;2.50;;;;;;;28.06;37.62;100000.59;5057031;28;20404;-69
2022/06/26 09:14:18;;;;;;;5.82;3.85;;;;;;;28.06;37.37;99997.03;5054631;28;20492;-69
2022/06/26 09:16:47;;;;;;;8.68;3.40;;;;;;;28.03;37.48;99995.59;5054554;28;20071;-68
2022/06/26 09:19:16;;;;;;;7.28;3.10;;;;;;;28.00;37.35;100004.19;5055048;28;20037;-69
2022/06/26 09:21:42;;;;;;;4.45;3.00;;;;;;;27.94;37.46;99996.94;5069276;28;20123;-67
2022/06/26 09:24:10;;;;;;;5.05;3.67;;;;;;;27.93;37.50;99993.38;5075025;28;20039;-69
2022/06/26 09:26:37;;;;;;;3.30;2.58;;;;;;;27.90;37.53;99985.66;5071114;28;20115;-69
2022/06/26 09:29:29;;;;;;;4.55;2.95;;;;;;;27.88;37.68;99987.78;5054833;28;20024;-69
2022/06/26 09:31:54;;;;;;;2.85;2.50;;;;;;;27.86;37.22;99981.75;5043048;28;20045;-69
2022/06/26 09:34:22;;;;;;;6.32;2.85;;;;;;;27.86;37.29;99977.13;5054985;28;20503;-69
2022/06/26 09:36:58;;;;;;;3.78;2.67;;;;;;;27.87;37.26;99978.81;5053829;28;20508;-69
2022/06/26 09:39:25;;;;;;;5.40;2.90;;;;;;;27.88;37.21;99979.63;5055750;28;20395;-69
2022/06/26 09:41:50;;;;;;;3.30;2.30;;;;;;;27.92;37.09;99978.13;5055468;28;20044;-69
2022/06/26 09:44:20;;;;;;;3.50;2.47;;;;;;;27.93;36.99;99973.53;5054913;28;20033;-68
2022/06/26 09:46:45;;;;;;;6.03;2.50;;;;;;;27.91;37.06;99965.56;5054955;28;20033;-68
2022/06/26 09:49:11;;;;;;;3.67;2.70;;;;;;;27.90;37.02;99969.34;5053754;28;20029;-68
2022/06/26 09:51:37;;;;;;;2.75;2.28;;;;;;;27.89;37.38;99975.84;5054320;28;20041;-69
2022/06/26 09:54:04;;;;;;;3.55;2.75;;;;;;;27.86;37.59;99968.16;5055065;28;20040;-68
2022/06/26 09:56:31;;;;;;;5.80;3.10;;;;;;;27.83;37.12;99968.59;5059244;28;20036;-68
2022/06/26 09:58:58;;;;;;;3.25;2.95;;;;;;;27.82;37.51;99961.50;5073648;28;20032;-68
2022/06/26 10:06:56;;;;;;;3.67;2.75;;;;;;;27.82;37.41;99966.94;5073531;28;20062;-68
2022/06/26 10:09:22;;;;;;;3.03;2.30;;;;;;;27.82;37.13;99962.31;5073109;28;20136;-68
2022/06/26 10:11:50;;;;;;;3.80;3.00;;;;;;;27.79;37.20;99959.22;5073724;28;20553;-68
2022/06/26 10:14:28;;;;;;;5.38;2.72;;;;;;;27.79;37.36;99953.78;5074018;28;20131;-69
2022/06/26 10:17:10;;;;;;;4.60;2.72;;;;;;;27.77;37.41;99950.47;5072636;28;20042;-69
2022/06/26 10:19:59;;;;;;;5.43;3.03;;;;;;;27.75;37.67;99937.09;5053468;28;20075;-69
2022/06/26 10:22:24;;;;;;;5.68;2.72;;;;;;;27.74;37.36;99948.19;5074013;28;20040;-68
2022/06/26 10:24:57;;;;;;;4.63;2.95;;;;;;;27.74;37.43;99940.03;5074053;28;20032;-69
2022/06/26 10:27:24;;;;;;;8.80;2.90;;;;;;;27.74;37.58;99948.19;5065552;28;20040;-68
2022/06/26 10:29:49;;;;;;;6.35;2.60;;;;;;;27.75;37.82;99949.84;5054515;28;20035;-68
2022/06/26 10:32:23;;;;;;;6.05;2.92;;;;;;;27.75;37.74;99944.41;5053814;28;20037;-69
2022/06/26 10:34:58;;;;;;;4.25;2.67;;;;;;;27.74;38.18;99940.03;5053608;28;20523;-69
2022/06/26 10:37:23;;;;;;;7.28;2.97;;;;;;;27.74;38.15;99940.03;5053690;28;20036;-69
2022/06/26 10:39:51;;;;;;;7.40;2.92;;;;;;;27.75;38.11;99930.81;5054476;28;20404;-69
2022/06/26 10:45:27;;;;;;;7.05;3.30;;;;;;;27.76;38.06;99946.06;5041752;28;20128;-69
2022/06/26 10:48:01;;;;;;;3.22;2.85;;;;;;;27.78;38.43;99927.66;5070401;28;20407;-69
2022/06/26 10:50:33;;;;;;;6.70;3.20;;;;;;;27.80;38.37;99939.97;5068508;28;20029;-69
2022/06/26 10:53:24;;;;;;;8.73;3.42;;;;;;;27.82;38.31;99928.88;5058263;28;20032;-69
2022/06/26 10:55:51;;;;;;;3.22;2.92;;;;;;;27.79;38.17;99924.72;5065318;28;20514;-69
2022/06/26 10:58:27;;;;;;;4.82;3.03;;;;;;;27.80;38.40;99920.94;5057393;28;20082;-69
2022/06/26 11:00:55;;;;;;;5.07;3.40;;;;;;;27.79;38.13;99923.88;5066514;28;20112;-70
2022/06/26 11:03:21;;;;;;;4.32;3.17;;;;;;;27.80;38.44;99928.25;5072347;28;20069;-70
2022/06/26 11:06:02;;;;;;;5.30;3.85;;;;;;;27.80;38.30;99922.81;5073000;28;20040;-69
2022/06/26 11:08:30;;;;;;;5.45;3.53;;;;;;;27.80;38.24;99931.78;5055503;28;20044;-70
2022/06/26 11:11:04;;;;;;;5.00;3.15;;;;;;;27.80;38.33;99922.81;5060953;28;20033;-70
2022/06/26 11:13:30;;;;;;;5.43;3.35;;;;;;;27.82;38.41;99918.00;5052873;28;20052;-70
2022/06/26 11:15:56;;;;;;;10.65;3.63;;;;;;;27.84;38.20;99924.88;5054729;28;20044;-69
2022/06/26 11:18:21;;;;;;;5.03;3.53;;;;;;;27.87;38.16;99923.56;5055350;28;20036;-69
2022/06/26 11:20:50;;;;;;;3.95;3.55;;;;;;;27.87;38.28;99920.84;5070874;28;20036;-70
2022/06/26 11:23:21;;;;;;;7.05;3.30;;;;;;;27.92;38.34;99922.91;5067899;28;20044;-70
2022/06/26 11:25:49;;;;;;;3.75;3.30;;;;;;;27.92;37.79;99907.41;5072632;28;20036;-70
2022/06/26 11:28:16;;;;;;;5.15;3.33;;;;;;;27.91;38.21;99907.66;5072496;28;20033;-69
2022/06/26 11:30:43;;;;;;;6.47;3.53;;;;;;;27.89;38.09;99912.50;5060314;28;20499;-70
2022/06/26 11:33:09;;;;;;;5.50;3.95;;;;;;;27.87;37.83;99904.53;5072082;28;20126;-70
2022/06/26 11:35:36;;;;;;;10.35;4.38;;;;;;;27.88;38.06;99908.91;5072795;28;20159;-70
2022/06/26 11:38:12;;;;;;;8.68;3.78;;;;;;;27.88;38.15;99914.34;5072459;28;20039;-70
2022/06/26 11:40:38;;;;;;;5.63;3.75;;;;;;;27.91;38.04;99910.38;5064928;28;20033;-69
2022/06/26 11:43:04;;;;;;;3.85;3.10;;;;;;;27.93;38.01;99914.53;5059671;28;20151;-70